SJQT weather

Public forecast

Using degrees Celsius for public forecast. Weather courtesy of forecast.io.

Closest aviation weather report (METAR) to Fazenda Haras RPC Airport

Report is more than 2 hours old.

Closest report is Carlos Prates Airport, 16.0 nm (29.6 km) NNW. Retrieved 2020/08/11 20:00 UTC (4 hours ago):

SBPR 112000Z 05005KT 9999 SCT030 24/10 Q1020

Closest aviation forecast (TAF) to Fazenda Haras RPC Airport

Forecast is more than 12 hours old.

Closest forecast is Pampulha - Carlos Drummond de Andrade Airport, 19.1 nm (35.4 km) N. Retrieved 2012/03/26 18:12 UTC (8 years ago):

TAF SBBH 261639Z 2618/2706 09005KT 9999 SCT030 TX28/2618Z TN20/2705Z PROB30 2619/2624 8000 TSRA BKN035 FEW045CB RMK PGG